Time,TemperatureF,DewpointF,PressureIn,WindDirection,WindDirectionDegrees,WindSpeedMPH,WindSpeedGustMPH,Humidity,HourlyPrecipIn,Conditions,Clouds,dailyrainin,SolarRadiationWatts/m^2,SoftwareType,DateUTC
2013-02-07 00:01:00,37.0,36.0,-100.00,West,263,2.0,7.0,97,-99.99,,,0.00,0.000000,,2013-02-07 08:01:00,
2013-02-07 00:11:00,37.0,36.0,-100.00,West,263,2.0,7.0,97,-99.99,,,0.00,0.000000,,2013-02-07 08:11:00,
2013-02-07 00:42:00,37.0,36.0,-100.00,SSW,213,2.0,4.0,97,-99.99,,,0.00,0.000000,,2013-02-07 08:42:00,
2013-02-07 00:52:00,37.0,36.0,-100.00,SSW,213,2.0,4.0,97,-99.99,,,0.00,0.000000,,2013-02-07 08:52:00,
2013-02-07 01:01:00,37.0,36.0,-100.00,SSW,213,2.0,4.0,97,-99.99,,,0.00,0.000000,,2013-02-07 09:01:00,
2013-02-07 01:11:00,37.0,36.0,-100.00,SSW,213,2.0,4.0,97,-99.99,,,0.00,0.000000,,2013-02-07 09:11:00,
2013-02-07 01:41:00,38.0,37.0,-100.00,SE,135,2.0,4.0,97,-99.99,,,0.00,0.000000,,2013-02-07 09:41:00,
2013-02-07 01:52:00,38.0,37.0,-100.00,SE,135,2.0,4.0,97,-99.99,,,0.00,0.000000,,2013-02-07 09:52:00,
2013-02-07 02:01:00,38.0,37.0,-100.00,SE,135,2.0,4.0,97,-99.99,,,0.00,0.000000,,2013-02-07 10:01:00,
2013-02-07 02:11:00,38.0,37.0,-100.00,SE,135,2.0,4.0,97,-99.99,,,0.00,0.000000,,2013-02-07 10:11:00,
2013-02-07 02:41:00,38.0,37.0,-100.00,NW,317,2.0,5.0,97,-99.99,,,0.00,0.000000,,2013-02-07 10:41:00,
2013-02-07 02:52:00,38.0,37.0,-100.00,NW,317,2.0,5.0,97,-99.99,,,0.00,0.000000,,2013-02-07 10:52:00,
2013-02-07 03:01:00,38.0,37.0,-100.00,NW,317,2.0,5.0,97,-99.99,,,0.00,0.000000,,2013-02-07 11:01:00,
2013-02-07 03:11:00,38.0,37.0,-100.00,NW,317,2.0,5.0,97,-99.99,,,0.00,0.000000,,2013-02-07 11:11:00,
2013-02-07 03:44:00,38.0,37.0,-100.00,NNW,336,0.0,3.0,97,-99.99,,,0.00,0.000000,,2013-02-07 11:44:00,
2013-02-07 03:52:00,38.0,37.0,-100.00,NNW,336,0.0,3.0,97,-99.99,,,0.00,0.000000,,2013-02-07 11:52:00,
2013-02-07 04:01:00,38.0,37.0,-100.00,NNW,336,0.0,3.0,97,-99.99,,,0.00,0.000000,,2013-02-07 12:01:00,
2013-02-07 04:11:00,38.0,37.0,-100.00,NNW,336,0.0,3.0,97,-99.99,,,0.00,0.000000,,2013-02-07 12:11:00,
2013-02-07 04:42:00,37.0,36.0,-100.00,NNE,19,1.0,3.0,96,-99.99,,,0.00,0.000000,,2013-02-07 12:42:00,
2013-02-07 04:53:00,37.0,36.0,-100.00,NNE,19,1.0,3.0,96,-99.99,,,0.00,0.000000,,2013-02-07 12:53:00,
2013-02-07 05:02:00,37.0,36.0,-100.00,NNE,19,1.0,3.0,96,-99.99,,,0.00,0.000000,,2013-02-07 13:02:00,
2013-02-07 05:11:00,37.0,36.0,-100.00,NNE,19,1.0,3.0,96,-99.99,,,0.00,0.000000,,2013-02-07 13:11:00,
2013-02-07 05:32:00,37.0,35.0,-100.00,NW,309,1.0,5.0,91,-99.99,,,0.00,0.000000,,2013-02-07 13:32:00,
2013-02-07 05:42:00,37.0,35.0,-100.00,NW,309,1.0,5.0,91,-99.99,,,0.00,0.000000,,2013-02-07 13:42:00,
2013-02-07 05:52:00,37.0,35.0,-100.00,NW,309,1.0,5.0,91,-99.99,,,0.00,0.000000,,2013-02-07 13:52:00,
2013-02-07 06:01:00,37.0,35.0,-100.00,NW,309,1.0,5.0,91,-99.99,,,0.00,0.000000,,2013-02-07 14:01:00,
2013-02-07 06:11:00,37.0,35.0,-100.00,NW,309,1.0,5.0,91,-99.99,,,0.00,0.000000,,2013-02-07 14:11:00,
2013-02-07 06:41:00,35.0,34.0,-100.00,WNW,299,2.0,5.0,96,-99.99,,,0.00,0.000000,,2013-02-07 14:41:00,
2013-02-07 06:52:00,35.0,34.0,-100.00,WNW,299,2.0,5.0,96,-99.99,,,0.00,0.000000,,2013-02-07 14:52:00,
2013-02-07 07:01:00,35.0,34.0,-100.00,WNW,299,2.0,5.0,96,-99.99,,,0.00,0.000000,,2013-02-07 15:01:00,
2013-02-07 07:11:00,35.0,34.0,-100.00,WNW,299,2.0,5.0,96,-99.99,,,0.00,0.000000,,2013-02-07 15:11:00,
2013-02-07 07:42:00,34.0,33.0,-100.00,West,273,1.0,3.0,97,-99.99,,,0.00,0.930000,,2013-02-07 15:42:00,
2013-02-07 07:52:00,34.0,33.0,-100.00,West,273,1.0,3.0,97,-99.99,,,0.00,0.930000,,2013-02-07 15:52:00,
2013-02-07 08:01:00,34.0,33.0,-100.00,West,273,1.0,3.0,97,-99.99,,,0.00,0.930000,,2013-02-07 16:01:00,
2013-02-07 08:11:00,34.0,33.0,-100.00,West,273,1.0,3.0,97,-99.99,,,0.00,0.930000,,2013-02-07 16:11:00,
2013-02-07 08:32:00,35.0,34.0,-100.00,NE,39,2.0,5.0,96,-99.99,,,0.00,88.330002,,2013-02-07 16:32:00,
2013-02-07 08:41:00,35.0,34.0,-100.00,NE,39,2.0,5.0,96,-99.99,,,0.00,88.330002,,2013-02-07 16:41:00,
2013-02-07 08:52:00,35.0,34.0,-100.00,NE,39,2.0,5.0,96,-99.99,,,0.00,88.330002,,2013-02-07 16:52:00,
2013-02-07 09:01:00,35.0,34.0,-100.00,NE,39,2.0,5.0,96,-99.99,,,0.00,88.330002,,2013-02-07 17:01:00,
2013-02-07 09:11:00,35.0,34.0,-100.00,NE,39,2.0,5.0,96,-99.99,,,0.00,88.330002,,2013-02-07 17:11:00,
2013-02-07 09:42:00,37.0,35.0,-100.00,NW,324,2.0,6.0,95,-99.99,,,0.00,241.619995,,2013-02-07 17:42:00,
2013-02-07 09:52:00,37.0,35.0,-100.00,NW,324,2.0,6.0,95,-99.99,,,0.00,241.619995,,2013-02-07 17:52:00,
2013-02-07 10:01:00,37.0,35.0,-100.00,NW,324,2.0,6.0,95,-99.99,,,0.00,241.619995,,2013-02-07 18:01:00,
2013-02-07 10:11:00,37.0,35.0,-100.00,NW,324,2.0,6.0,95,-99.99,,,0.00,241.619995,,2013-02-07 18:11:00,
2013-02-07 10:41:00,42.0,36.0,-100.00,North,7,5.0,9.0,80,-99.99,,,0.00,408.510010,,2013-02-07 18:41:00,
2013-02-07 10:52:00,42.0,36.0,-100.00,North,7,5.0,9.0,80,-99.99,,,0.00,408.510010,,2013-02-07 18:52:00,
2013-02-07 11:01:00,42.0,36.0,-100.00,North,7,5.0,9.0,80,-99.99,,,0.00,408.510010,,2013-02-07 19:01:00,
2013-02-07 11:11:00,42.0,36.0,-100.00,North,7,5.0,9.0,80,-99.99,,,0.00,408.510010,,2013-02-07 19:11:00,
2013-02-07 11:41:00,44.0,36.0,-100.00,North,359,3.0,5.0,73,-99.99,,,0.00,554.140015,,2013-02-07 19:41:00,
2013-02-07 11:52:00,44.0,36.0,-100.00,North,359,3.0,5.0,73,-99.99,,,0.00,554.140015,,2013-02-07 19:52:00,
2013-02-07 12:01:00,44.0,36.0,-100.00,North,359,3.0,5.0,73,-99.99,,,0.00,554.140015,,2013-02-07 20:01:00,
2013-02-07 12:11:00,44.0,36.0,-100.00,North,359,3.0,5.0,73,-99.99,,,0.00,554.140015,,2013-02-07 20:11:00,
2013-02-07 12:31:00,44.0,34.0,-100.00,NNW,343,2.0,5.0,66,-99.99,,,0.00,258.709991,,2013-02-07 20:31:00,
2013-02-07 12:41:00,44.0,34.0,-100.00,NNW,343,2.0,5.0,66,-99.99,,,0.00,258.709991,,2013-02-07 20:41:00,
2013-02-07 12:52:00,44.0,34.0,-100.00,NNW,343,2.0,5.0,66,-99.99,,,0.00,258.709991,,2013-02-07 20:52:00,
2013-02-07 13:01:00,44.0,34.0,-100.00,NNW,343,2.0,5.0,66,-99.99,,,0.00,258.709991,,2013-02-07 21:01:00,
2013-02-07 13:11:00,44.0,34.0,-100.00,NNW,343,2.0,5.0,66,-99.99,,,0.00,258.709991,,2013-02-07 21:11:00,
2013-02-07 13:42:00,48.0,29.0,-100.00,WSW,255,2.0,9.0,46,-99.99,,,0.00,535.770020,,2013-02-07 21:42:00,
2013-02-07 13:52:00,48.0,29.0,-100.00,WSW,255,2.0,9.0,46,-99.99,,,0.00,535.770020,,2013-02-07 21:52:00,
2013-02-07 14:01:00,48.0,29.0,-100.00,WSW,255,2.0,9.0,46,-99.99,,,0.00,535.770020,,2013-02-07 22:01:00,
2013-02-07 14:11:00,48.0,29.0,-100.00,WSW,255,2.0,9.0,46,-99.99,,,0.00,535.770020,,2013-02-07 22:11:00,
2013-02-07 14:42:00,46.0,31.0,-100.00,SSW,209,7.0,17.0,56,-99.99,,,0.00,468.829987,,2013-02-07 22:42:00,
2013-02-07 14:52:00,46.0,31.0,-100.00,SSW,209,7.0,17.0,56,-99.99,,,0.00,468.829987,,2013-02-07 22:52:00,
2013-02-07 15:01:00,46.0,31.0,-100.00,SSW,209,7.0,17.0,56,-99.99,,,0.00,468.829987,,2013-02-07 23:01:00,
2013-02-07 15:11:00,46.0,31.0,-100.00,SSW,209,7.0,17.0,56,-99.99,,,0.00,468.829987,,2013-02-07 23:11:00,
2013-02-07 15:41:00,46.0,29.0,-100.00,WNW,299,2.0,7.0,52,-99.99,,,0.00,231.630005,,2013-02-07 23:41:00,
2013-02-07 15:52:00,46.0,29.0,-100.00,WNW,299,2.0,7.0,52,-99.99,,,0.00,231.630005,,2013-02-07 23:52:00,
2013-02-07 16:01:00,46.0,29.0,-100.00,WNW,299,2.0,7.0,52,-99.99,,,0.00,231.630005,,2013-02-08 00:01:00,
2013-02-07 16:11:00,46.0,29.0,-100.00,WNW,299,2.0,7.0,52,-99.99,,,0.00,231.630005,,2013-02-08 00:11:00,
2013-02-07 16:41:00,45.0,30.0,-100.00,NNW,328,1.0,4.0,56,-99.99,,,0.00,83.209999,,2013-02-08 00:41:00,
2013-02-07 16:52:00,45.0,30.0,-100.00,NNW,328,1.0,4.0,56,-99.99,,,0.00,83.209999,,2013-02-08 00:52:00,
2013-02-07 17:01:00,45.0,30.0,-100.00,NNW,328,1.0,4.0,56,-99.99,,,0.00,83.209999,,2013-02-08 01:01:00,
2013-02-07 17:11:00,45.0,30.0,-100.00,NNW,328,1.0,4.0,56,-99.99,,,0.00,83.209999,,2013-02-08 01:11:00,
2013-02-07 17:41:00,40.0,31.0,-100.00,WNW,299,1.0,2.0,71,-99.99,,,0.00,7.320000,,2013-02-08 01:41:00,
2013-02-07 17:52:00,40.0,31.0,-100.00,WNW,299,1.0,2.0,71,-99.99,,,0.00,7.320000,,2013-02-08 01:52:00,
2013-02-07 18:01:00,40.0,31.0,-100.00,WNW,299,1.0,2.0,71,-99.99,,,0.00,7.320000,,2013-02-08 02:01:00,
2013-02-07 18:11:00,40.0,31.0,-100.00,WNW,299,1.0,2.0,71,-99.99,,,0.00,7.320000,,2013-02-08 02:11:00,
2013-02-07 18:42:00,38.0,32.0,-100.00,SSW,205,2.0,4.0,78,-99.99,,,0.00,0.000000,,2013-02-08 02:42:00,
2013-02-07 18:52:00,38.0,32.0,-100.00,SSW,205,2.0,4.0,78,-99.99,,,0.00,0.000000,,2013-02-08 02:52:00,
2013-02-07 19:01:00,38.0,32.0,-100.00,SSW,205,2.0,4.0,78,-99.99,,,0.00,0.000000,,2013-02-08 03:01:00,
2013-02-07 19:12:00,38.0,32.0,-100.00,SSW,205,2.0,4.0,78,-99.99,,,0.00,0.000000,,2013-02-08 03:12:00,
2013-02-07 19:41:00,35.0,31.0,-100.00,South,177,3.0,7.0,86,-99.99,,,0.00,0.000000,,2013-02-08 03:41:00,
2013-02-07 19:52:00,35.0,31.0,-100.00,South,177,3.0,7.0,86,-99.99,,,0.00,0.000000,,2013-02-08 03:52:00,
2013-02-07 20:01:00,35.0,31.0,-100.00,South,177,3.0,7.0,86,-99.99,,,0.00,0.000000,,2013-02-08 04:01:00,
2013-02-07 20:11:00,35.0,31.0,-100.00,South,177,3.0,7.0,86,-99.99,,,0.00,0.000000,,2013-02-08 04:11:00,
2013-02-07 20:32:00,34.0,31.0,-100.00,SSW,211,2.0,5.0,87,-99.99,,,0.00,0.000000,,2013-02-08 04:32:00,
2013-02-07 20:41:00,33.0,30.0,-100.00,South,173,3.0,7.0,89,-99.99,,,0.00,0.000000,,2013-02-08 04:41:00,
2013-02-07 20:52:00,33.0,30.0,-100.00,South,173,3.0,7.0,89,-99.99,,,0.00,0.000000,,2013-02-08 04:52:00,
2013-02-07 21:01:00,33.0,30.0,-100.00,South,173,3.0,7.0,89,-99.99,,,0.00,0.000000,,2013-02-08 05:01:00,
2013-02-07 21:11:00,33.0,30.0,-100.00,South,173,3.0,7.0,89,-99.99,,,0.00,0.000000,,2013-02-08 05:11:00,
2013-02-07 21:31:00,33.0,30.0,-100.00,SSW,195,3.0,5.0,89,-99.99,,,0.00,0.000000,,2013-02-08 05:31:00,
2013-02-07 21:41:00,33.0,30.0,-100.00,SSW,195,3.0,5.0,89,-99.99,,,0.00,0.000000,,2013-02-08 05:41:00,
2013-02-07 21:52:00,33.0,30.0,-100.00,SSW,195,3.0,5.0,89,-99.99,,,0.00,0.000000,,2013-02-08 05:52:00,
2013-02-07 22:01:00,33.0,30.0,-100.00,SSW,195,3.0,5.0,89,-99.99,,,0.00,0.000000,,2013-02-08 06:01:00,
2013-02-07 22:11:00,33.0,30.0,-100.00,SSW,195,3.0,5.0,89,-99.99,,,0.00,0.000000,,2013-02-08 06:11:00,
2013-02-07 22:41:00,30.0,28.0,-100.00,WSW,254,1.0,2.0,92,-99.99,,,0.00,0.000000,,2013-02-08 06:41:00,
2013-02-07 22:52:00,30.0,28.0,-100.00,WSW,254,1.0,2.0,92,-99.99,,,0.00,0.000000,,2013-02-08 06:52:00,
2013-02-07 23:01:00,30.0,28.0,-100.00,WSW,254,1.0,2.0,92,-99.99,,,0.00,0.000000,,2013-02-08 07:01:00,
2013-02-07 23:11:00,30.0,28.0,-100.00,WSW,254,1.0,2.0,92,-99.99,,,0.00,0.000000,,2013-02-08 07:11:00,
2013-02-07 23:31:00,30.0,28.0,-100.00,WSW,257,1.0,2.0,93,-99.99,,,0.00,0.000000,,2013-02-08 07:31:00,
2013-02-07 23:42:00,30.0,28.0,-100.00,WSW,257,1.0,2.0,93,-99.99,,,0.00,0.000000,,2013-02-08 07:42:00,
2013-02-07 23:52:00,30.0,28.0,-100.00,WSW,257,1.0,2.0,93,-99.99,,,0.00,0.000000,,2013-02-08 07:52:00,